createdAt,value
2022-12-23T00:01:22.333Z,98536.16
2022-12-23T00:03:49.116Z,98530.69
2022-12-23T00:06:18.269Z,98536.88
2022-12-23T00:08:45.280Z,98541.31
2022-12-23T00:11:13.543Z,98538.47
2022-12-23T00:13:40.116Z,98535.41
2022-12-23T00:16:08.560Z,98531.22
2022-12-23T00:18:35.912Z,98533.97
2022-12-23T00:21:08.567Z,98539.00
2022-12-23T00:23:39.026Z,98527.53
2022-12-23T00:26:06.197Z,98534.56
2022-12-23T00:28:33.192Z,98532.13
2022-12-23T00:31:02.627Z,98524.06
2022-12-23T00:33:31.551Z,98525.81
2022-12-23T00:35:58.438Z,98529.53
2022-12-23T00:38:25.671Z,98543.00
2022-12-23T00:40:53.448Z,98545.59
2022-12-23T00:43:20.056Z,98547.16
2022-12-23T00:45:46.622Z,98545.44
2022-12-23T00:48:13.433Z,98549.91
2022-12-23T00:50:40.840Z,98545.72
2022-12-23T00:53:07.557Z,98547.75
2022-12-23T00:55:34.074Z,98544.59
2022-12-23T00:58:01.890Z,98551.47
2022-12-23T01:00:29.053Z,98548.03
2022-12-23T01:02:55.630Z,98545.88
2022-12-23T01:05:22.383Z,98549.47
2022-12-23T01:07:48.955Z,98552.47
2022-12-23T01:10:15.474Z,98559.66
2022-12-23T01:12:42.047Z,98557.31
2022-12-23T01:15:10.660Z,98562.50
2022-12-23T01:17:37.404Z,98553.63
2022-12-23T01:20:04.671Z,98559.47
2022-12-23T01:22:31.164Z,98570.72
2022-12-23T01:24:57.711Z,98573.19
2022-12-23T01:27:24.194Z,98580.91
2022-12-23T01:29:50.702Z,98580.63
2022-12-23T01:32:18.713Z,98577.03
2022-12-23T01:34:45.275Z,98581.75
2022-12-23T01:37:11.782Z,98580.03
2022-12-23T01:39:38.414Z,98584.50
2022-12-23T01:42:09.712Z,98589.75
2022-12-23T01:44:54.904Z,98591.97
2022-12-23T01:47:31.874Z,98587.66
2022-12-23T01:50:04.987Z,98590.97
2022-12-23T01:52:34.893Z,98589.84
2022-12-23T01:55:01.517Z,98597.88
2022-12-23T01:57:28.956Z,98600.22
2022-12-23T01:59:55.566Z,98595.28
2022-12-23T02:02:22.265Z,98608.81
2022-12-23T02:04:51.351Z,98612.22
2022-12-23T02:07:18.866Z,98603.69
2022-12-23T02:09:45.345Z,98596.72
2022-12-23T02:12:36.211Z,98600.63
2022-12-23T02:15:14.492Z,98604.16
2022-12-23T02:17:52.217Z,98596.69
2022-12-23T02:20:59.059Z,98591.41
2022-12-23T02:23:52.359Z,98592.38
2022-12-23T02:26:42.519Z,98604.91
2022-12-23T02:29:42.392Z,98609.44
2022-12-23T02:32:15.776Z,98618.28
2022-12-23T02:34:52.344Z,98618.97
2022-12-23T02:37:24.078Z,98616.41
2022-12-23T02:39:55.725Z,98625.13
2022-12-23T02:42:25.960Z,98631.94
2022-12-23T02:44:59.418Z,98631.94
2022-12-23T02:47:31.791Z,98638.19
2022-12-23T02:50:03.601Z,98643.28
2022-12-23T02:52:34.436Z,98637.25
2022-12-23T02:55:06.578Z,98641.31
2022-12-23T02:57:37.036Z,98648.44
2022-12-23T03:00:06.339Z,98642.84
2022-12-23T03:02:36.809Z,98651.16
2022-12-23T03:05:04.114Z,98642.22
2022-12-23T03:07:33.389Z,98648.72
2022-12-23T03:10:08.366Z,98654.16
2022-12-23T03:12:46.355Z,98665.94
2022-12-23T03:15:21.586Z,98654.44
2022-12-23T03:17:59.138Z,98657.06
2022-12-23T03:20:34.606Z,98671.13
2022-12-23T03:23:08.012Z,98676.75
2022-12-23T03:25:40.530Z,98688.03
2022-12-23T03:28:11.616Z,98688.03
2022-12-23T03:30:43.125Z,98699.91
2022-12-23T03:33:17.062Z,98698.03
2022-12-23T03:35:48.939Z,98695.16
2022-12-23T03:38:18.446Z,98689.38
2022-12-23T03:40:49.224Z,98687.09
2022-12-23T03:43:20.880Z,98687.66
2022-12-23T03:45:52.409Z,98683.34
2022-12-23T03:48:25.115Z,98682.94
2022-12-23T03:50:56.564Z,98682.50
2022-12-23T03:53:27.572Z,98681.25
2022-12-23T03:55:56.665Z,98678.78
2022-12-23T03:58:35.053Z,98676.75
2022-12-23T04:01:10.183Z,98678.81
2022-12-23T04:03:47.156Z,98676.84
2022-12-23T04:06:17.717Z,98676.09
2022-12-23T04:08:48.323Z,98681.28
2022-12-23T04:11:14.979Z,98681.84
2022-12-23T04:13:41.551Z,98680.88
2022-12-23T04:16:08.307Z,98687.75
2022-12-23T04:18:35.017Z,98692.22
2022-12-23T04:21:03.112Z,98693.47
2022-12-23T04:23:29.584Z,98681.09
2022-12-23T04:25:56.115Z,98685.69
2022-12-23T04:28:22.545Z,98690.78
2022-12-23T04:30:49.049Z,98690.47
2022-12-23T04:33:15.573Z,98691.84
2022-12-23T04:35:42.103Z,98692.22
2022-12-23T04:38:09.940Z,98690.66
2022-12-23T04:40:36.540Z,98687.44
2022-12-23T04:43:03.045Z,98691.47
2022-12-23T04:45:29.644Z,98689.16
2022-12-23T04:47:56.107Z,98707.66
2022-12-23T04:50:22.752Z,98691.97
2022-12-23T04:52:49.343Z,98690.19
2022-12-23T04:55:17.218Z,98688.31
2022-12-23T04:57:43.682Z,98691.31
2022-12-23T05:00:11.278Z,98690.59
2022-12-23T05:02:37.930Z,98697.53
2022-12-23T05:05:05.117Z,98701.94
2022-12-23T05:07:31.797Z,98702.25
2022-12-23T05:09:58.296Z,98707.53
2022-12-23T05:12:26.131Z,98709.78
2022-12-23T05:14:52.867Z,98711.88
2022-12-23T05:17:19.358Z,98711.94
2022-12-23T05:19:45.954Z,98716.78
2022-12-23T05:22:12.513Z,98716.16
2022-12-23T05:24:38.969Z,98710.81
2022-12-23T05:27:05.583Z,98710.78
2022-12-23T05:29:33.420Z,98707.03
2022-12-23T05:31:59.946Z,98711.75
2022-12-23T05:34:26.615Z,98701.31
2022-12-23T05:36:53.109Z,98700.84
2022-12-23T05:39:19.574Z,98704.97
2022-12-23T05:41:46.125Z,98712.16
2022-12-23T05:44:12.633Z,98713.19
2022-12-23T05:46:40.543Z,98709.00
2022-12-23T05:49:07.031Z,98708.88
2022-12-23T05:51:33.671Z,98718.09
2022-12-23T05:54:00.191Z,98724.84
2022-12-23T05:56:26.747Z,98732.75
2022-12-23T05:58:53.489Z,98740.53
2022-12-23T06:01:20.007Z,98737.75
2022-12-23T06:03:48.141Z,98744.75
2022-12-23T06:06:14.773Z,98747.41
2022-12-23T06:08:41.282Z,98748.84
2022-12-23T06:11:07.947Z,98756.00
2022-12-23T06:13:34.506Z,98756.91
2022-12-23T06:16:01.134Z,98757.00
2022-12-23T06:18:27.644Z,98754.81
2022-12-23T06:21:00.180Z,98764.44
2022-12-23T06:23:26.657Z,98754.25
2022-12-23T06:25:58.812Z,98753.25
2022-12-23T06:28:25.555Z,98744.00
2022-12-23T06:30:52.795Z,98746.56
2022-12-23T06:33:19.267Z,98754.06
2022-12-23T06:35:45.777Z,98751.84
2022-12-23T06:38:13.795Z,98750.50
2022-12-23T06:40:40.470Z,98749.28
2022-12-23T06:43:07.043Z,98743.84
2022-12-23T06:45:33.523Z,98753.41
2022-12-23T06:48:00.012Z,98748.03
2022-12-23T06:50:26.546Z,98733.13
2022-12-23T06:52:53.033Z,98730.56
2022-12-23T06:55:20.886Z,98731.03
2022-12-23T06:57:49.128Z,98727.16
2022-12-23T07:00:16.632Z,98724.97
2022-12-23T07:02:43.252Z,98737.63
2022-12-23T07:05:09.776Z,98743.38
2022-12-23T07:07:36.412Z,98755.22
2022-12-23T07:10:03.274Z,98745.22
2022-12-23T07:12:31.075Z,98742.66
2022-12-23T07:14:57.644Z,98747.69
2022-12-23T07:17:24.130Z,98761.75
2022-12-23T07:19:50.963Z,98770.53
2022-12-23T07:22:17.460Z,98787.31
2022-12-23T07:24:43.979Z,98789.34
2022-12-23T07:27:10.754Z,98799.78
2022-12-23T07:29:38.556Z,98804.06
2022-12-23T07:32:05.404Z,98801.38
2022-12-23T07:34:32.041Z,98813.16
2022-12-23T07:36:58.533Z,98807.50
2022-12-23T07:39:25.089Z,98819.00
2022-12-23T07:42:08.894Z,98811.91
2022-12-23T07:44:39.376Z,98802.91
2022-12-23T07:47:05.861Z,98807.50
2022-12-23T07:49:32.417Z,98820.09
2022-12-23T07:51:58.930Z,98812.53
2022-12-23T07:54:25.396Z,98815.88
2022-12-23T07:56:51.922Z,98809.72
2022-12-23T07:59:18.423Z,98810.28
2022-12-23T08:01:46.427Z,98804.47
2022-12-23T08:04:13.020Z,98797.69
2022-12-23T08:06:39.551Z,98801.13
2022-12-23T08:09:06.043Z,98802.19
2022-12-23T08:11:32.528Z,98809.63
2022-12-23T08:13:59.075Z,98803.69
2022-12-23T08:16:25.686Z,98795.66
2022-12-23T08:18:53.650Z,98798.00
2022-12-23T08:21:20.220Z,98799.75
2022-12-23T08:23:47.582Z,98803.31
2022-12-23T08:26:16.942Z,98791.59
2022-12-23T08:28:44.253Z,98787.88
2022-12-23T08:31:12.980Z,98793.28
2022-12-23T08:33:41.884Z,98783.13
2022-12-23T08:36:19.092Z,98793.19
2022-12-23T08:38:49.399Z,98773.22
2022-12-23T08:41:18.679Z,98781.84
2022-12-23T08:43:45.365Z,98774.81
2022-12-23T08:46:12.117Z,98784.34
2022-12-23T08:48:42.501Z,98778.06
2022-12-23T08:51:15.061Z,98779.47
2022-12-23T08:53:41.523Z,98781.13
2022-12-23T08:56:10.610Z,98788.53
2022-12-23T08:58:38.060Z,98793.31
2022-12-23T09:01:05.941Z,98771.75
2022-12-23T09:03:39.666Z,98789.72
2022-12-23T09:06:07.725Z,98780.06
2022-12-23T09:08:35.978Z,98785.28
2022-12-23T09:11:03.526Z,98786.72
2022-12-23T09:13:48.100Z,98785.56
2022-12-23T09:16:15.358Z,98783.00
2022-12-23T09:18:43.272Z,98790.91
2022-12-23T09:21:26.767Z,98768.19
2022-12-23T09:23:54.999Z,98786.13
2022-12-23T09:26:24.563Z,98786.13
2022-12-23T09:28:53.426Z,98772.47
2022-12-23T09:31:25.218Z,98775.94
2022-12-23T09:33:53.881Z,98772.63
2022-12-23T09:36:21.267Z,98769.63
2022-12-23T09:38:48.207Z,98764.72
2022-12-23T09:41:33.419Z,98751.22
2022-12-23T09:44:14.967Z,98758.69
2022-12-23T09:46:47.625Z,98755.38
2022-12-23T09:49:17.490Z,98759.09
2022-12-23T09:51:45.641Z,98762.44
2022-12-23T09:54:17.917Z,98747.94
2022-12-23T09:56:51.178Z,98745.88
2022-12-23T09:59:29.110Z,98736.56
2022-12-23T10:02:00.767Z,98736.28
2022-12-23T10:04:46.857Z,98724.44
2022-12-23T10:07:22.707Z,98715.81
2022-12-23T10:09:51.218Z,98719.28
2022-12-23T10:12:31.641Z,98708.16
2022-12-23T10:15:04.230Z,98711.50
2022-12-23T10:17:38.821Z,98712.28
2022-12-23T10:20:16.701Z,98698.84
2022-12-23T10:22:44.905Z,98697.88
2022-12-23T10:25:16.917Z,98691.69
2022-12-23T10:27:44.876Z,98682.47
2022-12-23T10:30:42.606Z,98672.00
2022-12-23T10:33:09.721Z,98665.78
2022-12-23T10:35:44.180Z,98662.50
2022-12-23T10:38:29.004Z,98661.47
2022-12-23T10:41:07.120Z,98656.31
2022-12-23T10:43:47.143Z,98675.44
2022-12-23T10:46:19.658Z,98671.81
2022-12-23T10:48:59.940Z,98660.47
2022-12-23T10:51:32.129Z,98664.91
2022-12-23T10:54:02.107Z,98659.16
2022-12-23T10:56:29.394Z,98642.19
2022-12-23T10:58:59.816Z,98642.44
2022-12-23T11:01:27.844Z,98635.94
2022-12-23T11:04:03.168Z,98637.44
2022-12-23T11:06:37.263Z,98638.88
2022-12-23T11:09:05.875Z,98638.78
2022-12-23T11:11:58.217Z,98631.59
2022-12-23T11:14:38.542Z,98627.56
2022-12-23T11:17:14.403Z,98620.81
2022-12-23T11:19:41.133Z,98614.91
2022-12-23T11:22:21.762Z,98621.25
2022-12-23T11:24:48.421Z,98613.34
2022-12-23T11:27:15.602Z,98609.59
2022-12-23T11:29:48.461Z,98607.28
2022-12-23T11:32:18.605Z,98601.09
2022-12-23T11:34:47.260Z,98602.41
2022-12-23T11:37:27.210Z,98591.34
2022-12-23T11:39:53.937Z,98587.16
2022-12-23T11:42:27.100Z,98585.13
2022-12-23T11:44:58.620Z,98581.22
2022-12-23T11:47:27.886Z,98572.50
2022-12-23T11:49:55.823Z,98554.88
2022-12-23T11:52:24.198Z,98546.63
2022-12-23T11:54:54.543Z,98538.72
2022-12-23T11:57:24.664Z,98516.13
2022-12-23T11:59:59.939Z,98513.00
2022-12-23T12:02:34.429Z,98513.41
2022-12-23T12:05:04.873Z,98496.03
2022-12-23T12:07:33.208Z,98489.22
2022-12-23T12:10:01.457Z,98481.09
2022-12-23T12:12:29.508Z,98479.56
2022-12-23T12:14:58.747Z,98472.44
2022-12-23T12:17:32.509Z,98462.13
2022-12-23T12:20:03.513Z,98457.81
2022-12-23T12:22:36.163Z,98465.13
2022-12-23T12:25:17.444Z,98454.38
2022-12-23T12:27:50.173Z,98459.13
2022-12-23T12:30:20.139Z,98451.91
2022-12-23T12:32:54.979Z,98460.41
2022-12-23T12:35:27.005Z,98457.84
2022-12-23T12:37:59.403Z,98458.03
2022-12-23T12:40:32.337Z,98446.53
2022-12-23T12:43:05.284Z,98442.78
2022-12-23T12:45:40.336Z,98428.16
2022-12-23T12:48:23.754Z,98431.16
2022-12-23T12:50:57.947Z,98420.69
2022-12-23T12:53:24.950Z,98417.69
2022-12-23T12:55:56.936Z,98421.69
2022-12-23T12:58:24.311Z,98409.06
2022-12-23T13:01:06.795Z,98395.72
2022-12-23T13:03:56.159Z,98384.66
2022-12-23T13:06:31.154Z,98377.34
2022-12-23T13:09:08.987Z,98367.00
2022-12-23T13:11:40.753Z,98356.53
2022-12-23T13:14:19.103Z,98351.75
2022-12-23T13:16:56.192Z,98356.53
2022-12-23T13:19:28.966Z,98358.53
2022-12-23T13:22:02.164Z,98360.84
2022-12-23T13:24:35.409Z,98336.56
2022-12-23T13:27:07.474Z,98337.00
2022-12-23T13:29:44.871Z,98323.69
2022-12-23T13:32:31.905Z,98325.25
2022-12-23T13:35:04.220Z,98321.41
2022-12-23T13:37:41.259Z,98296.41
2022-12-23T13:40:22.439Z,98275.91
2022-12-23T13:42:54.533Z,98279.44
2022-12-23T13:45:24.769Z,98292.19
2022-12-23T13:48:07.289Z,98280.72
2022-12-23T13:50:38.640Z,98262.78
2022-12-23T13:53:21.957Z,98269.66
2022-12-23T13:55:59.152Z,98266.84
2022-12-23T13:58:28.411Z,98266.53
2022-12-23T14:01:18.753Z,98240.97
2022-12-23T14:03:48.707Z,98232.09
2022-12-23T14:06:21.531Z,98229.50
2022-12-23T14:08:48.571Z,98230.25
2022-12-23T14:11:18.986Z,98227.81
2022-12-23T14:13:55.144Z,98214.59
2022-12-23T14:16:48.743Z,98199.25
2022-12-23T14:19:50.693Z,98204.03
2022-12-23T14:22:32.910Z,98202.53
2022-12-23T14:25:33.061Z,98205.88
2022-12-23T14:28:07.700Z,98203.03
2022-12-23T14:30:36.218Z,98189.03
2022-12-23T14:33:04.398Z,98192.25
2022-12-23T14:35:57.279Z,98192.50
2022-12-23T14:38:29.922Z,98192.97
2022-12-23T14:41:22.704Z,98191.03
2022-12-23T14:43:55.212Z,98180.97
2022-12-23T14:46:55.301Z,98176.53
2022-12-23T14:49:40.402Z,98170.53
2022-12-23T14:52:45.760Z,98169.81
2022-12-23T14:55:47.044Z,98173.19
2022-12-23T14:58:34.439Z,98167.94
2022-12-23T15:01:03.810Z,98171.22
2022-12-23T15:03:34.576Z,98171.41
2022-12-23T15:06:05.701Z,98169.59
2022-12-23T15:08:37.479Z,98162.78
2022-12-23T15:11:05.372Z,98166.13
2022-12-23T15:13:32.971Z,98175.69
2022-12-23T15:16:01.954Z,98159.03
2022-12-23T15:18:29.297Z,98165.94
2022-12-23T15:21:01.535Z,98163.81
2022-12-23T15:23:28.035Z,98165.91
2022-12-23T15:25:57.884Z,98165.19
2022-12-23T15:28:34.937Z,98161.88
2022-12-23T15:31:04.472Z,98160.00
2022-12-23T15:36:26.303Z,98178.84
2022-12-23T15:38:52.990Z,98175.31
2022-12-23T15:41:20.802Z,98167.72
2022-12-23T15:43:47.366Z,98174.47
2022-12-23T15:46:17.257Z,98176.66
2022-12-23T15:48:47.227Z,98168.31
2022-12-23T15:51:36.634Z,98171.34
2022-12-23T15:54:07.057Z,98177.59
2022-12-23T15:56:38.782Z,98179.09
2022-12-23T15:59:06.283Z,98179.59
2022-12-23T16:01:39.064Z,98181.19
2022-12-23T16:07:24.554Z,98191.09
2022-12-23T16:09:54.351Z,98185.47
2022-12-23T16:12:24.086Z,98199.78
2022-12-23T16:14:53.829Z,98199.09
2022-12-23T16:17:24.678Z,98198.97
2022-12-23T16:19:52.953Z,98199.91
2022-12-23T16:22:26.084Z,98210.31
2022-12-23T16:24:58.982Z,98193.75
2022-12-23T16:27:34.412Z,98208.66
2022-12-23T16:30:04.347Z,98214.13
2022-12-23T16:32:31.052Z,98202.78
2022-12-23T16:35:09.854Z,98208.34
2022-12-23T16:37:36.315Z,98206.06
2022-12-23T16:40:12.780Z,98218.19
2022-12-23T16:42:43.600Z,98211.63
2022-12-23T16:45:12.941Z,98215.91
2022-12-23T16:47:41.443Z,98222.56
2022-12-23T16:50:14.341Z,98222.22
2022-12-23T16:52:40.867Z,98221.41
2022-12-23T16:55:15.933Z,98212.84
2022-12-23T16:57:44.559Z,98248.78
2022-12-23T17:00:14.610Z,98236.78
2022-12-23T17:02:41.497Z,98246.81
2022-12-23T17:05:14.345Z,98258.66
2022-12-23T17:07:45.263Z,98252.69
2022-12-23T17:10:13.970Z,98244.28
2022-12-23T17:12:41.517Z,98264.25
2022-12-23T17:15:16.340Z,98265.00
2022-12-23T17:17:42.926Z,98280.53
2022-12-23T17:20:09.984Z,98268.69
2022-12-23T17:22:37.408Z,98288.03
2022-12-23T17:25:05.897Z,98285.19
2022-12-23T17:27:32.385Z,98284.72
2022-12-23T17:29:58.911Z,98303.34
2022-12-23T17:32:27.331Z,98298.91
2022-12-23T17:34:56.340Z,98299.31
2022-12-23T17:37:23.151Z,98316.44
2022-12-23T17:39:51.711Z,98318.22
2022-12-23T17:42:25.545Z,98316.84
2022-12-23T17:44:52.747Z,98319.31
2022-12-23T17:47:21.312Z,98330.50
2022-12-23T17:49:49.702Z,98337.59
2022-12-23T17:52:18.432Z,98331.41
2022-12-23T17:54:46.296Z,98325.63
2022-12-23T17:57:20.122Z,98340.09
2022-12-23T17:59:48.032Z,98340.09
2022-12-23T18:02:55.218Z,98341.34
2022-12-23T18:05:25.746Z,98345.72
2022-12-23T18:07:53.753Z,98354.44
2022-12-23T18:10:23.461Z,98336.13
2022-12-23T18:12:53.351Z,98353.28
2022-12-23T18:15:24.425Z,98357.81
2022-12-23T18:17:52.282Z,98364.94
2022-12-23T18:20:21.292Z,98376.09
2022-12-23T18:22:51.558Z,98379.22
2022-12-23T18:25:21.402Z,98389.31
2022-12-23T18:27:48.581Z,98389.56
2022-12-23T18:30:15.375Z,98386.41
2022-12-23T18:32:42.700Z,98395.13
2022-12-23T18:35:26.814Z,98401.31
2022-12-23T18:37:55.532Z,98399.47
2022-12-23T18:40:25.703Z,98398.38
2022-12-23T18:42:56.550Z,98407.03
2022-12-23T18:45:33.109Z,98413.41
2022-12-23T18:48:04.269Z,98423.31
2022-12-23T18:50:31.867Z,98425.75
2022-12-23T18:52:59.937Z,98415.41
2022-12-23T18:55:27.334Z,98421.84
2022-12-23T18:57:54.254Z,98422.28
2022-12-23T19:00:23.430Z,98430.19
2022-12-23T19:02:51.435Z,98424.78
2022-12-23T19:05:20.563Z,98428.03
2022-12-23T19:07:48.079Z,98426.91
2022-12-23T19:10:18.663Z,98423.94
2022-12-23T19:12:45.391Z,98425.84
2022-12-23T19:15:15.659Z,98439.06
2022-12-23T19:17:42.213Z,98450.34
2022-12-23T19:20:11.361Z,98435.31
2022-12-23T19:22:38.334Z,98440.00
2022-12-23T19:25:06.881Z,98436.88
2022-12-23T19:27:34.915Z,98442.47
2022-12-23T19:30:01.689Z,98431.94
2022-12-23T19:32:28.207Z,98445.66
2022-12-23T19:34:54.664Z,98445.19
2022-12-23T19:37:21.166Z,98453.31
2022-12-23T19:39:47.736Z,98455.13
2022-12-23T19:42:14.306Z,98458.66
2022-12-23T19:44:42.239Z,98462.78
2022-12-23T19:47:08.820Z,98472.69
2022-12-23T19:49:35.385Z,98476.75
2022-12-23T19:52:02.589Z,98473.41
2022-12-23T19:54:29.152Z,98483.31
2022-12-23T19:56:55.867Z,98489.72
2022-12-23T19:59:22.404Z,98488.19
2022-12-23T20:01:50.386Z,98494.69
2022-12-23T20:04:17.433Z,98494.31
2022-12-23T20:06:44.409Z,98518.03
2022-12-23T20:09:12.878Z,98515.72
2022-12-23T20:11:40.804Z,98508.03
2022-12-23T20:14:08.192Z,98512.72
2022-12-23T20:16:35.699Z,98521.00
2022-12-23T20:19:04.325Z,98517.81
2022-12-23T20:21:31.016Z,98524.81
2022-12-23T20:23:57.858Z,98530.69
2022-12-23T20:26:24.335Z,98544.81
2022-12-23T20:28:51.522Z,98548.44
2022-12-23T20:31:20.325Z,98544.50
2022-12-23T20:33:47.485Z,98556.03
2022-12-23T20:36:18.034Z,98540.66
2022-12-23T20:38:46.535Z,98559.78
2022-12-23T20:41:15.637Z,98554.09
2022-12-23T20:43:46.060Z,98569.16
2022-12-23T20:46:19.531Z,98563.50
2022-12-23T20:48:46.832Z,98581.53
2022-12-23T20:51:16.686Z,98584.81
2022-12-23T20:53:43.668Z,98579.56
2022-12-23T20:56:12.618Z,98575.34
2022-12-23T20:58:39.269Z,98589.88
2022-12-23T21:01:09.478Z,98592.34
2022-12-23T21:03:36.041Z,98584.56
2022-12-23T21:06:02.759Z,98601.09
2022-12-23T21:08:30.589Z,98601.97
2022-12-23T21:10:57.523Z,98605.28
2022-12-23T21:13:24.184Z,98610.72
2022-12-23T21:15:50.959Z,98603.25
2022-12-23T21:18:17.525Z,98611.44
2022-12-23T21:20:44.079Z,98615.03
2022-12-23T21:23:10.521Z,98615.47
2022-12-23T21:25:38.420Z,98616.63
2022-12-23T21:28:04.928Z,98623.53
2022-12-23T21:30:31.518Z,98615.03
2022-12-23T21:32:58.085Z,98618.47
2022-12-23T21:35:24.607Z,98610.13
2022-12-23T21:37:51.087Z,98617.66
2022-12-23T21:40:17.731Z,98629.41
2022-12-23T21:42:45.607Z,98635.03
2022-12-23T21:45:12.099Z,98623.63
2022-12-23T21:47:38.648Z,98637.34
2022-12-23T21:50:06.405Z,98635.59
2022-12-23T21:52:32.876Z,98644.66
2022-12-23T21:54:59.785Z,98650.28
2022-12-23T21:57:26.523Z,98661.63
2022-12-23T21:59:54.553Z,98664.94
2022-12-23T22:02:21.447Z,98672.13
2022-12-23T22:04:48.028Z,98670.84
2022-12-23T22:07:14.579Z,98682.72
2022-12-23T22:09:41.145Z,98678.75
2022-12-23T22:12:08.099Z,98672.56
2022-12-23T22:14:34.943Z,98677.03
2022-12-23T22:17:02.949Z,98680.19
2022-12-23T22:19:29.685Z,98687.66
2022-12-23T22:21:56.324Z,98697.44
2022-12-23T22:24:22.801Z,98694.97
2022-12-23T22:26:49.323Z,98706.47
2022-12-23T22:29:18.384Z,98699.13
2022-12-23T22:31:47.979Z,98698.38
2022-12-23T22:34:18.235Z,98710.41
2022-12-23T22:36:54.491Z,98705.28
2022-12-23T22:39:24.217Z,98714.09
2022-12-23T22:41:53.127Z,98725.31
2022-12-23T22:44:20.307Z,98729.63
2022-12-23T22:46:47.605Z,98714.97
2022-12-23T22:49:17.762Z,98731.25
2022-12-23T22:51:45.219Z,98750.41
2022-12-23T22:54:11.847Z,98751.94
2022-12-23T22:56:40.515Z,98754.56
2022-12-23T22:59:07.215Z,98767.81
2022-12-23T23:01:35.523Z,98773.88
2022-12-23T23:04:03.968Z,98771.78
2022-12-23T23:06:34.320Z,98772.25
2022-12-23T23:09:01.720Z,98777.06
2022-12-23T23:11:29.473Z,98764.41
2022-12-23T23:13:56.934Z,98786.72
2022-12-23T23:16:25.921Z,98786.34
2022-12-23T23:18:54.203Z,98789.41
2022-12-23T23:21:21.410Z,98788.97
2022-12-23T23:23:50.131Z,98800.97
2022-12-23T23:26:17.866Z,98812.69
2022-12-23T23:28:52.036Z,98796.72
2022-12-23T23:34:07.004Z,98805.66
2022-12-23T23:36:33.949Z,98796.81
2022-12-23T23:39:02.353Z,98790.69
2022-12-23T23:45:20.267Z,98806.66
2022-12-23T23:47:47.344Z,98794.88
2022-12-23T23:50:14.195Z,98807.97
2022-12-23T23:52:42.751Z,98819.25
2022-12-23T23:55:11.457Z,98817.47
2022-12-23T23:57:38.392Z,98819.91
